sensor_id;sensor_type;location;lat;lon;timestamp;P1;durP1;ratioP1;P2;durP2;ratioP2
13801;SDS011;6972;51.518;6.918;2022-11-12T00:01:55;6.70;;;4.00;;
13801;SDS011;6972;51.518;6.918;2022-11-12T00:04:21;6.80;;;3.70;;
13801;SDS011;6972;51.518;6.918;2022-11-12T00:06:47;7.30;;;3.97;;
13801;SDS011;6972;51.518;6.918;2022-11-12T00:09:13;8.93;;;3.80;;
13801;SDS011;6972;51.518;6.918;2022-11-12T00:11:39;7.70;;;3.87;;
13801;SDS011;6972;51.518;6.918;2022-11-12T00:14:05;10.73;;;3.77;;
13801;SDS011;6972;51.518;6.918;2022-11-12T00:16:31;6.83;;;3.43;;
13801;SDS011;6972;51.518;6.918;2022-11-12T00:18:57;8.20;;;3.73;;
13801;SDS011;6972;51.518;6.918;2022-11-12T00:21:24;10.57;;;4.23;;
13801;SDS011;6972;51.518;6.918;2022-11-12T00:23:52;6.40;;;3.37;;
13801;SDS011;6972;51.518;6.918;2022-11-12T00:26:18;8.67;;;3.73;;
13801;SDS011;6972;51.518;6.918;2022-11-12T00:28:44;10.57;;;3.33;;
13801;SDS011;6972;51.518;6.918;2022-11-12T00:31:10;5.30;;;3.40;;
13801;SDS011;6972;51.518;6.918;2022-11-12T00:33:40;8.10;;;3.57;;
13801;SDS011;6972;51.518;6.918;2022-11-12T00:36:07;5.43;;;3.23;;
13801;SDS011;6972;51.518;6.918;2022-11-12T00:38:33;5.20;;;3.27;;
13801;SDS011;6972;51.518;6.918;2022-11-12T00:43:46;6.70;;;3.67;;
13801;SDS011;6972;51.518;6.918;2022-11-12T00:46:12;7.87;;;4.30;;
13801;SDS011;6972;51.518;6.918;2022-11-12T00:48:38;7.63;;;3.97;;
13801;SDS011;6972;51.518;6.918;2022-11-12T00:51:04;5.30;;;3.57;;
13801;SDS011;6972;51.518;6.918;2022-11-12T00:56:52;6.43;;;3.70;;
13801;SDS011;6972;51.518;6.918;2022-11-12T00:59:18;6.70;;;3.53;;
13801;SDS011;6972;51.518;6.918;2022-11-12T01:01:44;6.03;;;3.70;;
13801;SDS011;6972;51.518;6.918;2022-11-12T01:04:10;7.60;;;3.73;;
13801;SDS011;6972;51.518;6.918;2022-11-12T01:11:39;6.90;;;3.10;;
13801;SDS011;6972;51.518;6.918;2022-11-12T01:14:06;9.47;;;3.73;;
13801;SDS011;6972;51.518;6.918;2022-11-12T01:16:37;8.30;;;3.50;;
13801;SDS011;6972;51.518;6.918;2022-11-12T01:19:05;7.30;;;4.03;;
13801;SDS011;6972;51.518;6.918;2022-11-12T01:21:35;6.57;;;3.53;;
13801;SDS011;6972;51.518;6.918;2022-11-12T01:24:03;7.20;;;3.80;;
13801;SDS011;6972;51.518;6.918;2022-11-12T01:26:29;7.13;;;3.30;;
13801;SDS011;6972;51.518;6.918;2022-11-12T01:28:54;6.20;;;3.43;;
13801;SDS011;6972;51.518;6.918;2022-11-12T01:31:22;6.50;;;3.30;;
13801;SDS011;6972;51.518;6.918;2022-11-12T01:33:52;8.63;;;4.03;;
13801;SDS011;6972;51.518;6.918;2022-11-12T01:36:19;5.40;;;3.60;;
13801;SDS011;6972;51.518;6.918;2022-11-12T01:38:45;7.37;;;3.63;;
13801;SDS011;6972;51.518;6.918;2022-11-12T02:09:37;5.23;;;3.30;;
13801;SDS011;6972;51.518;6.918;2022-11-12T02:12:03;4.63;;;3.40;;
13801;SDS011;6972;51.518;6.918;2022-11-12T02:14:29;6.97;;;4.47;;
13801;SDS011;6972;51.518;6.918;2022-11-12T02:16:56;9.33;;;5.13;;
13801;SDS011;6972;51.518;6.918;2022-11-12T02:19:22;8.27;;;5.10;;
13801;SDS011;6972;51.518;6.918;2022-11-12T02:21:48;9.23;;;5.93;;
13801;SDS011;6972;51.518;6.918;2022-11-12T02:26:41;13.47;;;7.03;;
13801;SDS011;6972;51.518;6.918;2022-11-12T02:29:11;11.80;;;6.57;;
13801;SDS011;6972;51.518;6.918;2022-11-12T02:31:37;13.13;;;7.37;;
13801;SDS011;6972;51.518;6.918;2022-11-12T02:34:03;12.67;;;7.60;;
13801;SDS011;6972;51.518;6.918;2022-11-12T02:36:29;16.13;;;8.40;;
13801;SDS011;6972;51.518;6.918;2022-11-12T02:38:55;13.47;;;8.80;;
13801;SDS011;6972;51.518;6.918;2022-11-12T02:41:21;16.33;;;9.70;;
13801;SDS011;6972;51.518;6.918;2022-11-12T02:43:47;15.07;;;9.33;;
13801;SDS011;6972;51.518;6.918;2022-11-12T02:46:13;17.10;;;9.77;;
13801;SDS011;6972;51.518;6.918;2022-11-12T02:48:39;15.90;;;8.17;;
13801;SDS011;6972;51.518;6.918;2022-11-12T02:51:05;15.53;;;9.53;;
13801;SDS011;6972;51.518;6.918;2022-11-12T02:53:32;20.37;;;10.00;;
13801;SDS011;6972;51.518;6.918;2022-11-12T02:55:58;19.63;;;10.70;;
13801;SDS011;6972;51.518;6.918;2022-11-12T02:58:25;17.90;;;10.40;;
13801;SDS011;6972;51.518;6.918;2022-11-12T03:00:50;18.23;;;10.87;;
13801;SDS011;6972;51.518;6.918;2022-11-12T03:03:17;18.90;;;10.00;;
13801;SDS011;6972;51.518;6.918;2022-11-12T03:05:43;18.97;;;9.50;;
13801;SDS011;6972;51.518;6.918;2022-11-12T03:08:09;17.70;;;10.50;;
13801;SDS011;6972;51.518;6.918;2022-11-12T03:10:36;18.17;;;10.17;;
13801;SDS011;6972;51.518;6.918;2022-11-12T03:13:03;17.80;;;10.63;;
13801;SDS011;6972;51.518;6.918;2022-11-12T03:15:29;18.60;;;10.83;;
13801;SDS011;6972;51.518;6.918;2022-11-12T03:17:56;20.70;;;11.97;;
13801;SDS011;6972;51.518;6.918;2022-11-12T03:20:22;18.27;;;10.83;;
13801;SDS011;6972;51.518;6.918;2022-11-12T03:22:55;19.87;;;12.17;;
13801;SDS011;6972;51.518;6.918;2022-11-12T03:25:26;18.77;;;11.10;;
13801;SDS011;6972;51.518;6.918;2022-11-12T03:28:02;26.73;;;12.90;;
13801;SDS011;6972;51.518;6.918;2022-11-12T03:30:33;27.73;;;12.43;;
13801;SDS011;6972;51.518;6.918;2022-11-12T03:33:01;24.60;;;11.70;;
13801;SDS011;6972;51.518;6.918;2022-11-12T03:35:28;20.00;;;11.87;;
13801;SDS011;6972;51.518;6.918;2022-11-12T03:37:54;20.50;;;11.87;;
13801;SDS011;6972;51.518;6.918;2022-11-12T03:40:20;20.70;;;12.00;;
13801;SDS011;6972;51.518;6.918;2022-11-12T03:42:49;20.27;;;11.43;;
13801;SDS011;6972;51.518;6.918;2022-11-12T03:45:15;21.03;;;11.93;;
13801;SDS011;6972;51.518;6.918;2022-11-12T03:47:44;22.03;;;11.83;;
13801;SDS011;6972;51.518;6.918;2022-11-12T03:50:11;16.47;;;10.07;;
13801;SDS011;6972;51.518;6.918;2022-11-12T03:52:38;18.60;;;11.43;;
13801;SDS011;6972;51.518;6.918;2022-11-12T03:55:04;19.83;;;11.33;;
13801;SDS011;6972;51.518;6.918;2022-11-12T03:57:30;18.23;;;10.70;;
13801;SDS011;6972;51.518;6.918;2022-11-12T03:59:56;15.30;;;9.10;;
13801;SDS011;6972;51.518;6.918;2022-11-12T04:02:21;18.03;;;9.40;;
13801;SDS011;6972;51.518;6.918;2022-11-12T04:04:49;20.07;;;9.63;;
13801;SDS011;6972;51.518;6.918;2022-11-12T04:07:34;15.30;;;8.63;;
13801;SDS011;6972;51.518;6.918;2022-11-12T04:10:18;15.67;;;8.37;;
13801;SDS011;6972;51.518;6.918;2022-11-12T04:12:44;18.23;;;8.73;;
13801;SDS011;6972;51.518;6.918;2022-11-12T04:15:28;18.20;;;9.40;;
13801;SDS011;6972;51.518;6.918;2022-11-12T04:17:54;17.17;;;8.37;;
13801;SDS011;6972;51.518;6.918;2022-11-12T04:20:39;13.50;;;8.23;;
13801;SDS011;6972;51.518;6.918;2022-11-12T04:23:23;11.80;;;7.70;;
13801;SDS011;6972;51.518;6.918;2022-11-12T04:25:49;15.30;;;8.63;;
13801;SDS011;6972;51.518;6.918;2022-11-12T04:28:33;12.60;;;7.70;;
13801;SDS011;6972;51.518;6.918;2022-11-12T04:30:59;13.27;;;7.83;;
13801;SDS011;6972;51.518;6.918;2022-11-12T04:33:25;13.77;;;8.80;;
13801;SDS011;6972;51.518;6.918;2022-11-12T04:35:51;16.03;;;8.87;;
13801;SDS011;6972;51.518;6.918;2022-11-12T04:38:17;17.73;;;9.40;;
13801;SDS011;6972;51.518;6.918;2022-11-12T04:40:42;18.20;;;10.10;;
13801;SDS011;6972;51.518;6.918;2022-11-12T04:43:27;15.77;;;9.40;;
13801;SDS011;6972;51.518;6.918;2022-11-12T04:46:11;16.43;;;8.93;;
13801;SDS011;6972;51.518;6.918;2022-11-12T04:48:37;20.90;;;9.53;;
13801;SDS011;6972;51.518;6.918;2022-11-12T04:51:03;18.30;;;9.57;;
13801;SDS011;6972;51.518;6.918;2022-11-12T04:53:52;13.77;;;8.83;;
13801;SDS011;6972;51.518;6.918;2022-11-12T04:56:18;16.13;;;9.53;;
13801;SDS011;6972;51.518;6.918;2022-11-12T04:58:44;23.77;;;10.50;;
13801;SDS011;6972;51.518;6.918;2022-11-12T05:01:10;21.60;;;10.17;;
13801;SDS011;6972;51.518;6.918;2022-11-12T05:03:36;13.80;;;8.57;;
13801;SDS011;6972;51.518;6.918;2022-11-12T05:06:04;16.90;;;9.53;;
13801;SDS011;6972;51.518;6.918;2022-11-12T05:08:53;13.87;;;8.50;;
13801;SDS011;6972;51.518;6.918;2022-11-12T05:11:19;17.87;;;9.80;;
13801;SDS011;6972;51.518;6.918;2022-11-12T05:13:44;19.23;;;10.20;;
13801;SDS011;6972;51.518;6.918;2022-11-12T05:16:10;14.13;;;9.37;;
13801;SDS011;6972;51.518;6.918;2022-11-12T05:18:36;16.67;;;9.10;;
13801;SDS011;6972;51.518;6.918;2022-11-12T05:21:02;17.73;;;9.50;;
13801;SDS011;6972;51.518;6.918;2022-11-12T05:23:51;20.83;;;9.10;;
13801;SDS011;6972;51.518;6.918;2022-11-12T05:26:17;14.37;;;7.60;;
13801;SDS011;6972;51.518;6.918;2022-11-12T05:28:42;18.70;;;8.60;;
13801;SDS011;6972;51.518;6.918;2022-11-12T05:31:08;12.90;;;7.77;;
13801;SDS011;6972;51.518;6.918;2022-11-12T05:33:33;15.70;;;8.40;;
13801;SDS011;6972;51.518;6.918;2022-11-12T05:35:59;15.27;;;8.13;;
13801;SDS011;6972;51.518;6.918;2022-11-12T05:38:24;15.37;;;7.93;;
13801;SDS011;6972;51.518;6.918;2022-11-12T05:40:51;16.17;;;8.33;;
13801;SDS011;6972;51.518;6.918;2022-11-12T05:43:17;20.40;;;8.00;;
13801;SDS011;6972;51.518;6.918;2022-11-12T05:45:42;15.37;;;8.60;;
13801;SDS011;6972;51.518;6.918;2022-11-12T05:48:08;16.63;;;8.87;;
13801;SDS011;6972;51.518;6.918;2022-11-12T05:50:34;15.03;;;8.10;;
13801;SDS011;6972;51.518;6.918;2022-11-12T05:53:00;15.07;;;8.37;;
13801;SDS011;6972;51.518;6.918;2022-11-12T05:55:26;14.67;;;8.47;;
13801;SDS011;6972;51.518;6.918;2022-11-12T05:57:52;15.50;;;8.03;;
13801;SDS011;6972;51.518;6.918;2022-11-12T06:00:18;13.20;;;8.63;;
13801;SDS011;6972;51.518;6.918;2022-11-12T06:02:44;16.67;;;9.07;;
13801;SDS011;6972;51.518;6.918;2022-11-12T06:05:10;16.63;;;9.23;;
13801;SDS011;6972;51.518;6.918;2022-11-12T06:07:36;19.50;;;9.33;;
13801;SDS011;6972;51.518;6.918;2022-11-12T06:10:03;18.43;;;10.40;;
13801;SDS011;6972;51.518;6.918;2022-11-12T06:12:28;17.03;;;9.60;;
13801;SDS011;6972;51.518;6.918;2022-11-12T06:14:55;20.53;;;10.43;;
13801;SDS011;6972;51.518;6.918;2022-11-12T06:17:21;18.63;;;9.80;;
13801;SDS011;6972;51.518;6.918;2022-11-12T06:19:46;17.70;;;9.87;;
13801;SDS011;6972;51.518;6.918;2022-11-12T06:22:12;13.70;;;9.63;;
13801;SDS011;6972;51.518;6.918;2022-11-12T06:24:38;16.13;;;9.57;;
13801;SDS011;6972;51.518;6.918;2022-11-12T06:27:04;18.07;;;10.57;;
13801;SDS011;6972;51.518;6.918;2022-11-12T06:29:30;18.43;;;10.37;;
13801;SDS011;6972;51.518;6.918;2022-11-12T06:31:56;17.50;;;9.87;;
13801;SDS011;6972;51.518;6.918;2022-11-12T06:34:22;23.97;;;10.27;;
13801;SDS011;6972;51.518;6.918;2022-11-12T06:36:48;15.10;;;9.27;;
13801;SDS011;6972;51.518;6.918;2022-11-12T06:39:14;20.07;;;9.43;;
13801;SDS011;6972;51.518;6.918;2022-11-12T06:41:40;16.40;;;9.67;;
13801;SDS011;6972;51.518;6.918;2022-11-12T06:44:06;15.80;;;9.27;;
13801;SDS011;6972;51.518;6.918;2022-11-12T06:46:32;16.50;;;8.70;;
13801;SDS011;6972;51.518;6.918;2022-11-12T06:48:58;17.77;;;9.90;;
13801;SDS011;6972;51.518;6.918;2022-11-12T06:51:25;20.63;;;9.67;;
13801;SDS011;6972;51.518;6.918;2022-11-12T06:53:50;15.17;;;9.50;;
13801;SDS011;6972;51.518;6.918;2022-11-12T06:56:16;15.93;;;10.10;;
13801;SDS011;6972;51.518;6.918;2022-11-12T06:58:42;19.73;;;10.20;;
13801;SDS011;6972;51.518;6.918;2022-11-12T07:01:12;17.10;;;10.83;;
13801;SDS011;6972;51.518;6.918;2022-11-12T07:03:39;20.83;;;11.10;;
13801;SDS011;6972;51.518;6.918;2022-11-12T07:06:07;25.07;;;10.90;;
13801;SDS011;6972;51.518;6.918;2022-11-12T07:08:37;22.50;;;11.67;;
13801;SDS011;6972;51.518;6.918;2022-11-12T07:11:04;21.17;;;10.43;;
13801;SDS011;6972;51.518;6.918;2022-11-12T07:13:31;25.77;;;10.53;;
13801;SDS011;6972;51.518;6.918;2022-11-12T07:16:01;21.23;;;11.57;;
13801;SDS011;6972;51.518;6.918;2022-11-12T07:18:28;18.90;;;10.80;;
13801;SDS011;6972;51.518;6.918;2022-11-12T07:21:01;21.30;;;11.47;;
13801;SDS011;6972;51.518;6.918;2022-11-12T07:23:29;23.97;;;10.37;;
13801;SDS011;6972;51.518;6.918;2022-11-12T07:28:23;16.60;;;10.00;;
13801;SDS011;6972;51.518;6.918;2022-11-12T07:31:02;18.77;;;9.93;;
13801;SDS011;6972;51.518;6.918;2022-11-12T07:33:30;20.83;;;10.10;;
13801;SDS011;6972;51.518;6.918;2022-11-12T07:35:56;16.23;;;9.27;;
13801;SDS011;6972;51.518;6.918;2022-11-12T07:38:27;15.70;;;9.40;;
13801;SDS011;6972;51.518;6.918;2022-11-12T07:40:59;18.37;;;10.00;;
13801;SDS011;6972;51.518;6.918;2022-11-12T07:43:25;17.03;;;9.37;;
13801;SDS011;6972;51.518;6.918;2022-11-12T07:45:52;17.27;;;9.00;;
13801;SDS011;6972;51.518;6.918;2022-11-12T07:48:18;17.60;;;9.87;;
13801;SDS011;6972;51.518;6.918;2022-11-12T07:50:43;17.30;;;9.77;;
13801;SDS011;6972;51.518;6.918;2022-11-12T07:53:09;19.93;;;9.20;;
13801;SDS011;6972;51.518;6.918;2022-11-12T07:55:35;16.40;;;9.17;;
13801;SDS011;6972;51.518;6.918;2022-11-12T07:58:07;18.60;;;9.10;;
13801;SDS011;6972;51.518;6.918;2022-11-12T08:03:19;14.80;;;8.47;;
13801;SDS011;6972;51.518;6.918;2022-11-12T08:06:14;13.33;;;7.37;;
13801;SDS011;6972;51.518;6.918;2022-11-12T08:08:40;14.03;;;7.70;;
13801;SDS011;6972;51.518;6.918;2022-11-12T08:11:05;14.10;;;7.77;;
13801;SDS011;6972;51.518;6.918;2022-11-12T08:13:31;13.57;;;7.13;;
13801;SDS011;6972;51.518;6.918;2022-11-12T08:15:57;10.97;;;6.47;;
13801;SDS011;6972;51.518;6.918;2022-11-12T08:18:23;10.87;;;6.23;;
13801;SDS011;6972;51.518;6.918;2022-11-12T08:20:50;13.97;;;7.50;;
13801;SDS011;6972;51.518;6.918;2022-11-12T08:23:16;10.83;;;6.30;;
13801;SDS011;6972;51.518;6.918;2022-11-12T08:25:41;10.63;;;6.60;;
13801;SDS011;6972;51.518;6.918;2022-11-12T08:28:07;13.03;;;7.47;;
13801;SDS011;6972;51.518;6.918;2022-11-12T08:30:33;10.93;;;6.90;;
13801;SDS011;6972;51.518;6.918;2022-11-12T08:33:00;11.73;;;7.30;;
13801;SDS011;6972;51.518;6.918;2022-11-12T08:35:28;13.57;;;7.60;;
13801;SDS011;6972;51.518;6.918;2022-11-12T08:37:57;14.63;;;7.60;;
13801;SDS011;6972;51.518;6.918;2022-11-12T08:40:23;12.97;;;8.13;;
13801;SDS011;6972;51.518;6.918;2022-11-12T08:42:55;13.93;;;8.40;;
13801;SDS011;6972;51.518;6.918;2022-11-12T08:45:21;14.27;;;9.10;;
13801;SDS011;6972;51.518;6.918;2022-11-12T08:47:47;16.53;;;9.17;;
13801;SDS011;6972;51.518;6.918;2022-11-12T08:50:13;15.77;;;9.10;;
13801;SDS011;6972;51.518;6.918;2022-11-12T08:52:38;14.80;;;8.93;;
13801;SDS011;6972;51.518;6.918;2022-11-12T08:55:04;16.63;;;9.20;;
13801;SDS011;6972;51.518;6.918;2022-11-12T08:57:31;15.67;;;8.70;;
13801;SDS011;6972;51.518;6.918;2022-11-12T08:59:57;11.77;;;8.00;;
13801;SDS011;6972;51.518;6.918;2022-11-12T09:02:23;16.87;;;9.63;;
13801;SDS011;6972;51.518;6.918;2022-11-12T09:04:49;21.47;;;9.20;;
13801;SDS011;6972;51.518;6.918;2022-11-12T09:07:14;12.63;;;8.00;;
13801;SDS011;6972;51.518;6.918;2022-11-12T09:09:43;13.27;;;7.63;;
13801;SDS011;6972;51.518;6.918;2022-11-12T09:12:09;14.50;;;8.20;;
13801;SDS011;6972;51.518;6.918;2022-11-12T09:14:42;16.30;;;7.87;;
13801;SDS011;6972;51.518;6.918;2022-11-12T09:17:07;14.57;;;7.37;;
13801;SDS011;6972;51.518;6.918;2022-11-12T09:19:33;11.93;;;7.40;;
13801;SDS011;6972;51.518;6.918;2022-11-12T09:21:59;14.90;;;8.13;;
13801;SDS011;6972;51.518;6.918;2022-11-12T09:24:24;20.87;;;10.03;;
13801;SDS011;6972;51.518;6.918;2022-11-12T09:26:53;15.20;;;9.27;;
13801;SDS011;6972;51.518;6.918;2022-11-12T09:29:19;16.30;;;9.83;;
13801;SDS011;6972;51.518;6.918;2022-11-12T09:31:46;19.80;;;9.80;;
13801;SDS011;6972;51.518;6.918;2022-11-12T09:34:11;16.90;;;8.73;;
13801;SDS011;6972;51.518;6.918;2022-11-12T09:36:37;16.70;;;8.70;;
13801;SDS011;6972;51.518;6.918;2022-11-12T09:39:03;15.43;;;8.60;;
13801;SDS011;6972;51.518;6.918;2022-11-12T09:41:33;18.33;;;9.23;;
13801;SDS011;6972;51.518;6.918;2022-11-12T09:44:03;40.13;;;9.70;;
13801;SDS011;6972;51.518;6.918;2022-11-12T09:49:13;15.67;;;8.80;;
13801;SDS011;6972;51.518;6.918;2022-11-12T09:51:50;20.13;;;8.77;;
13801;SDS011;6972;51.518;6.918;2022-11-12T09:54:25;16.50;;;8.63;;
13801;SDS011;6972;51.518;6.918;2022-11-12T09:56:54;17.57;;;8.57;;
13801;SDS011;6972;51.518;6.918;2022-11-12T09:59:20;14.73;;;8.53;;
13801;SDS011;6972;51.518;6.918;2022-11-12T10:10:47;13.63;;;8.18;;
13801;SDS011;6972;51.518;6.918;2022-11-12T10:13:37;18.23;;;8.47;;
13801;SDS011;6972;51.518;6.918;2022-11-12T10:23:18;14.80;;;8.00;;
13801;SDS011;6972;51.518;6.918;2022-11-12T10:25:26;15.50;;;8.27;;
13801;SDS011;6972;51.518;6.918;2022-11-12T10:27:53;17.87;;;8.77;;
13801;SDS011;6972;51.518;6.918;2022-11-12T10:30:21;19.07;;;8.80;;
13801;SDS011;6972;51.518;6.918;2022-11-12T10:32:49;18.50;;;9.27;;
13801;SDS011;6972;51.518;6.918;2022-11-12T10:35:17;14.80;;;9.30;;
13801;SDS011;6972;51.518;6.918;2022-11-12T10:43:09;14.55;;;8.60;;
13801;SDS011;6972;51.518;6.918;2022-11-12T10:45:49;24.33;;;8.85;;
13801;SDS011;6972;51.518;6.918;2022-11-12T10:48:19;18.95;;;8.98;;
13801;SDS011;6972;51.518;6.918;2022-11-12T10:50:51;13.55;;;8.05;;
13801;SDS011;6972;51.518;6.918;2022-11-12T10:53:33;16.38;;;8.88;;
13801;SDS011;6972;51.518;6.918;2022-11-12T10:56:02;15.52;;;8.23;;
13801;SDS011;6972;51.518;6.918;2022-11-12T10:59:30;20.58;;;8.20;;
13801;SDS011;6972;51.518;6.918;2022-11-12T11:01:43;16.13;;;7.00;;
13801;SDS011;6972;51.518;6.918;2022-11-12T11:04:18;11.32;;;6.40;;
13801;SDS011;6972;51.518;6.918;2022-11-12T11:06:47;14.10;;;6.47;;
13801;SDS011;6972;51.518;6.918;2022-11-12T11:09:14;11.95;;;6.93;;
13801;SDS011;6972;51.518;6.918;2022-11-12T11:11:49;11.50;;;7.07;;
13801;SDS011;6972;51.518;6.918;2022-11-12T11:16:53;17.10;;;7.78;;
13801;SDS011;6972;51.518;6.918;2022-11-12T11:19:22;13.18;;;7.47;;
13801;SDS011;6972;51.518;6.918;2022-11-12T11:22:00;11.98;;;7.68;;
13801;SDS011;6972;51.518;6.918;2022-11-12T11:57:20;12.15;;;6.53;;
13801;SDS011;6972;51.518;6.918;2022-11-12T12:00:00;15.27;;;6.63;;
13801;SDS011;6972;51.518;6.918;2022-11-12T12:11:00;16.35;;;6.45;;
13801;SDS011;6972;51.518;6.918;2022-11-12T12:21:28;11.85;;;6.55;;
13801;SDS011;6972;51.518;6.918;2022-11-12T12:24:02;9.48;;;6.03;;
13801;SDS011;6972;51.518;6.918;2022-11-12T12:26:45;10.80;;;5.75;;
13801;SDS011;6972;51.518;6.918;2022-11-12T12:32:09;14.45;;;6.20;;
13801;SDS011;6972;51.518;6.918;2022-11-12T12:34:45;16.67;;;6.18;;
13801;SDS011;6972;51.518;6.918;2022-11-12T12:37:19;10.73;;;6.53;;
13801;SDS011;6972;51.518;6.918;2022-11-12T12:40:09;10.15;;;5.47;;
13801;SDS011;6972;51.518;6.918;2022-11-12T12:47:56;11.65;;;5.53;;
13801;SDS011;6972;51.518;6.918;2022-11-12T12:50:23;11.80;;;5.50;;
13801;SDS011;6972;51.518;6.918;2022-11-12T12:53:03;10.43;;;5.25;;
13801;SDS011;6972;51.518;6.918;2022-11-12T12:58:21;13.25;;;5.80;;
13801;SDS011;6972;51.518;6.918;2022-11-12T13:01:00;9.43;;;5.35;;
13801;SDS011;6972;51.518;6.918;2022-11-12T13:08:52;12.50;;;5.22;;
13801;SDS011;6972;51.518;6.918;2022-11-12T13:40:36;10.07;;;4.25;;
13801;SDS011;6972;51.518;6.918;2022-11-12T13:45:39;9.82;;;4.95;;
13801;SDS011;6972;51.518;6.918;2022-11-12T13:48:25;15.20;;;4.57;;
13801;SDS011;6972;51.518;6.918;2022-11-12T13:50:53;9.68;;;4.65;;
13801;SDS011;6972;51.518;6.918;2022-11-12T13:53:22;9.40;;;4.60;;
13801;SDS011;6972;51.518;6.918;2022-11-12T13:55:52;6.97;;;4.47;;
13801;SDS011;6972;51.518;6.918;2022-11-12T14:01:03;6.88;;;4.30;;
13801;SDS011;6972;51.518;6.918;2022-11-12T14:03:31;10.02;;;4.38;;
13801;SDS011;6972;51.518;6.918;2022-11-12T14:06:24;8.15;;;4.10;;
13801;SDS011;6972;51.518;6.918;2022-11-12T14:16:55;10.32;;;4.07;;
13801;SDS011;6972;51.518;6.918;2022-11-12T14:19:54;8.60;;;4.43;;
13801;SDS011;6972;51.518;6.918;2022-11-12T14:22:24;9.57;;;4.50;;
13801;SDS011;6972;51.518;6.918;2022-11-12T14:24:53;9.63;;;4.05;;
13801;SDS011;6972;51.518;6.918;2022-11-12T14:32:37;16.77;;;4.82;;
13801;SDS011;6972;51.518;6.918;2022-11-12T14:37:50;12.43;;;5.47;;
13801;SDS011;6972;51.518;6.918;2022-11-12T14:40:20;16.05;;;5.65;;
13801;SDS011;6972;51.518;6.918;2022-11-12T14:42:47;14.73;;;5.65;;
13801;SDS011;6972;51.518;6.918;2022-11-12T14:45:16;17.50;;;6.65;;
13801;SDS011;6972;51.518;6.918;2022-11-12T14:47:44;13.88;;;6.40;;
13801;SDS011;6972;51.518;6.918;2022-11-12T14:52:44;16.42;;;6.40;;
13801;SDS011;6972;51.518;6.918;2022-11-12T14:55:18;12.00;;;5.78;;
13801;SDS011;6972;51.518;6.918;2022-11-12T14:57:48;10.60;;;6.07;;
13801;SDS011;6972;51.518;6.918;2022-11-12T15:00:19;10.23;;;4.95;;
13801;SDS011;6972;51.518;6.918;2022-11-12T15:02:53;9.82;;;5.00;;
13801;SDS011;6972;51.518;6.918;2022-11-12T15:05:20;8.40;;;4.95;;
13801;SDS011;6972;51.518;6.918;2022-11-12T15:10:32;11.15;;;5.90;;
13801;SDS011;6972;51.518;6.918;2022-11-12T15:13:10;9.43;;;5.28;;
13801;SDS011;6972;51.518;6.918;2022-11-12T15:16:03;14.13;;;5.95;;
13801;SDS011;6972;51.518;6.918;2022-11-12T15:18:31;14.70;;;6.28;;
13801;SDS011;6972;51.518;6.918;2022-11-12T15:23:46;21.13;;;6.40;;
13801;SDS011;6972;51.518;6.918;2022-11-12T15:26:13;14.38;;;5.90;;
13801;SDS011;6972;51.518;6.918;2022-11-12T15:28:59;11.35;;;6.28;;
13801;SDS011;6972;51.518;6.918;2022-11-12T15:31:26;10.65;;;5.68;;
13801;SDS011;6972;51.518;6.918;2022-11-12T15:33:52;12.20;;;5.15;;
13801;SDS011;6972;51.518;6.918;2022-11-12T15:36:20;12.82;;;5.53;;
13801;SDS011;6972;51.518;6.918;2022-11-12T15:38:48;10.15;;;5.20;;
13801;SDS011;6972;51.518;6.918;2022-11-12T15:41:22;12.55;;;5.78;;
13801;SDS011;6972;51.518;6.918;2022-11-12T15:43:51;13.48;;;4.63;;
13801;SDS011;6972;51.518;6.918;2022-11-12T15:46:17;11.20;;;5.15;;
13801;SDS011;6972;51.518;6.918;2022-11-12T15:48:43;17.40;;;5.03;;
13801;SDS011;6972;51.518;6.918;2022-11-12T15:51:09;10.45;;;5.00;;
13801;SDS011;6972;51.518;6.918;2022-11-12T15:53:35;14.85;;;5.60;;
13801;SDS011;6972;51.518;6.918;2022-11-12T15:56:01;17.17;;;5.90;;
13801;SDS011;6972;51.518;6.918;2022-11-12T15:58:33;10.05;;;5.78;;
13801;SDS011;6972;51.518;6.918;2022-11-12T16:01:01;17.17;;;6.53;;
13801;SDS011;6972;51.518;6.918;2022-11-12T16:03:29;15.57;;;5.88;;
13801;SDS011;6972;51.518;6.918;2022-11-12T16:05:55;14.32;;;5.88;;
13801;SDS011;6972;51.518;6.918;2022-11-12T16:08:21;15.20;;;6.22;;
13801;SDS011;6972;51.518;6.918;2022-11-12T16:10:47;12.93;;;5.82;;
13801;SDS011;6972;51.518;6.918;2022-11-12T16:13:18;16.10;;;7.10;;
13801;SDS011;6972;51.518;6.918;2022-11-12T16:15:51;20.42;;;7.45;;
13801;SDS011;6972;51.518;6.918;2022-11-12T16:18:17;14.63;;;8.55;;
13801;SDS011;6972;51.518;6.918;2022-11-12T16:20:42;18.40;;;7.78;;
13801;SDS011;6972;51.518;6.918;2022-11-12T16:23:08;14.82;;;8.07;;
13801;SDS011;6972;51.518;6.918;2022-11-12T16:25:35;17.35;;;8.30;;
13801;SDS011;6972;51.518;6.918;2022-11-12T16:28:02;15.30;;;7.90;;
13801;SDS011;6972;51.518;6.918;2022-11-12T16:30:30;14.65;;;7.47;;
13801;SDS011;6972;51.518;6.918;2022-11-12T16:32:57;18.17;;;8.27;;
13801;SDS011;6972;51.518;6.918;2022-11-12T16:35:24;15.52;;;7.80;;
13801;SDS011;6972;51.518;6.918;2022-11-12T16:37:54;12.25;;;7.82;;
13801;SDS011;6972;51.518;6.918;2022-11-12T16:40:21;15.55;;;7.68;;
13801;SDS011;6972;51.518;6.918;2022-11-12T16:42:50;15.02;;;7.43;;
13801;SDS011;6972;51.518;6.918;2022-11-12T16:45:17;16.35;;;7.93;;
13801;SDS011;6972;51.518;6.918;2022-11-12T16:47:49;14.68;;;7.45;;
13801;SDS011;6972;51.518;6.918;2022-11-12T16:50:18;15.43;;;7.97;;
13801;SDS011;6972;51.518;6.918;2022-11-12T16:52:49;12.88;;;7.60;;
13801;SDS011;6972;51.518;6.918;2022-11-12T16:55:15;16.13;;;8.18;;
13801;SDS011;6972;51.518;6.918;2022-11-12T16:57:41;17.77;;;7.80;;
13801;SDS011;6972;51.518;6.918;2022-11-12T17:00:13;11.80;;;7.03;;
13801;SDS011;6972;51.518;6.918;2022-11-12T17:02:43;17.33;;;8.20;;
13801;SDS011;6972;51.518;6.918;2022-11-12T17:05:11;22.23;;;8.27;;
13801;SDS011;6972;51.518;6.918;2022-11-12T17:07:39;15.02;;;8.50;;
13801;SDS011;6972;51.518;6.918;2022-11-12T17:10:05;19.52;;;8.38;;
13801;SDS011;6972;51.518;6.918;2022-11-12T17:12:31;19.80;;;8.43;;
13801;SDS011;6972;51.518;6.918;2022-11-12T17:14:57;16.70;;;8.52;;
13801;SDS011;6972;51.518;6.918;2022-11-12T17:17:23;18.83;;;9.10;;
13801;SDS011;6972;51.518;6.918;2022-11-12T17:19:49;15.98;;;9.20;;
13801;SDS011;6972;51.518;6.918;2022-11-12T17:22:15;16.42;;;8.93;;
13801;SDS011;6972;51.518;6.918;2022-11-12T17:24:43;16.30;;;8.32;;
13801;SDS011;6972;51.518;6.918;2022-11-12T17:27:09;25.38;;;9.77;;
13801;SDS011;6972;51.518;6.918;2022-11-12T17:29:35;16.40;;;8.90;;
13801;SDS011;6972;51.518;6.918;2022-11-12T17:32:01;20.00;;;9.07;;
13801;SDS011;6972;51.518;6.918;2022-11-12T17:34:27;19.73;;;9.55;;
13801;SDS011;6972;51.518;6.918;2022-11-12T17:36:53;17.92;;;9.23;;
13801;SDS011;6972;51.518;6.918;2022-11-12T17:39:19;19.35;;;9.52;;
13801;SDS011;6972;51.518;6.918;2022-11-12T17:41:45;22.50;;;10.27;;
13801;SDS011;6972;51.518;6.918;2022-11-12T17:44:15;18.92;;;10.00;;
13801;SDS011;6972;51.518;6.918;2022-11-12T17:46:42;21.07;;;10.77;;
13801;SDS011;6972;51.518;6.918;2022-11-12T17:49:09;25.00;;;10.50;;
13801;SDS011;6972;51.518;6.918;2022-11-12T17:51:35;20.23;;;9.68;;
13801;SDS011;6972;51.518;6.918;2022-11-12T17:54:01;25.00;;;9.75;;
13801;SDS011;6972;51.518;6.918;2022-11-12T17:56:27;21.70;;;10.68;;
13801;SDS011;6972;51.518;6.918;2022-11-12T17:58:56;17.60;;;9.43;;
13801;SDS011;6972;51.518;6.918;2022-11-12T18:01:22;20.35;;;9.55;;
13801;SDS011;6972;51.518;6.918;2022-11-12T18:03:49;17.00;;;9.95;;
13801;SDS011;6972;51.518;6.918;2022-11-12T18:08:43;20.92;;;11.07;;
13801;SDS011;6972;51.518;6.918;2022-11-12T18:11:10;20.00;;;11.38;;
13801;SDS011;6972;51.518;6.918;2022-11-12T18:13:37;18.27;;;11.15;;
13801;SDS011;6972;51.518;6.918;2022-11-12T18:16:19;23.20;;;11.90;;
13801;SDS011;6972;51.518;6.918;2022-11-12T18:18:46;22.88;;;11.63;;